createdAt,value
2022-08-05T00:01:35.459Z,20.46
2022-08-05T00:04:05.214Z,20.20
2022-08-05T00:06:35.887Z,20.00
2022-08-05T00:09:04.007Z,20.09
2022-08-05T00:11:35.182Z,20.15
2022-08-05T00:14:17.019Z,19.81
2022-08-05T00:16:52.497Z,19.93
2022-08-05T00:19:25.059Z,19.94
2022-08-05T00:22:00.822Z,19.96
2022-08-05T00:24:31.218Z,20.04
2022-08-05T00:26:59.039Z,19.76
2022-08-05T00:29:26.162Z,20.15
2022-08-05T00:32:13.364Z,20.05
2022-08-05T00:35:04.446Z,19.84
2022-08-05T00:37:50.330Z,19.79
2022-08-05T00:40:27.965Z,19.72
2022-08-05T00:43:00.473Z,19.76
2022-08-05T00:45:37.821Z,19.74
2022-08-05T00:48:07.504Z,19.95
2022-08-05T00:50:34.650Z,19.98
2022-08-05T00:53:02.298Z,19.78
2022-08-05T00:55:41.993Z,19.99
2022-08-05T00:58:13.901Z,20.11
2022-08-05T01:00:42.273Z,19.75
2022-08-05T01:03:10.050Z,20.10
2022-08-05T01:05:39.467Z,19.95
2022-08-05T01:08:39.201Z,19.81
2022-08-05T01:11:02.308Z,19.92
2022-08-05T01:13:57.332Z,20.04
2022-08-05T01:16:38.391Z,19.86
2022-08-05T01:20:02.240Z,19.94
2022-08-05T01:23:15.218Z,20.02
2022-08-05T01:26:01.523Z,19.77
2022-08-05T01:28:36.985Z,19.81
2022-08-05T01:31:44.544Z,19.74
2022-08-05T01:34:26.781Z,19.39
2022-08-05T01:37:03.749Z,19.48
2022-08-05T01:39:46.274Z,19.47
2022-08-05T01:42:17.085Z,19.58
2022-08-05T01:44:45.702Z,19.27
2022-08-05T01:47:22.126Z,19.51
2022-08-05T01:50:02.078Z,19.14
2022-08-05T01:52:32.429Z,19.22
2022-08-05T01:55:04.476Z,18.90
2022-08-05T01:58:13.082Z,19.00
2022-08-05T02:00:21.086Z,19.01
2022-08-05T02:03:23.978Z,19.23
2022-08-05T02:05:53.689Z,19.17
2022-08-05T02:08:30.949Z,19.25
2022-08-05T02:11:11.964Z,19.12
2022-08-05T02:13:53.232Z,18.97
2022-08-05T02:16:41.963Z,18.73
2022-08-05T02:19:19.458Z,18.95
2022-08-05T02:22:06.441Z,18.64
2022-08-05T02:24:38.230Z,18.88
2022-08-05T02:27:10.139Z,18.75
2022-08-05T02:29:59.954Z,18.92
2022-08-05T02:32:30.817Z,18.98
2022-08-05T02:35:00.550Z,18.95
2022-08-05T02:37:38.380Z,18.37
2022-08-05T02:40:06.673Z,19.07
2022-08-05T02:42:38.205Z,18.81
2022-08-05T02:45:06.969Z,18.77
2022-08-05T02:48:07.683Z,18.87
2022-08-05T02:50:23.260Z,18.66
2022-08-05T02:52:50.844Z,19.04
2022-08-05T02:55:17.777Z,18.83
2022-08-05T02:58:11.015Z,18.86
2022-08-05T03:00:40.496Z,19.12
2022-08-05T03:03:16.593Z,19.14
2022-08-05T03:06:54.785Z,19.22
2022-08-05T03:08:30.957Z,19.07
2022-08-05T03:11:53.367Z,18.97
2022-08-05T03:13:52.069Z,19.26
2022-08-05T03:16:29.511Z,19.25
2022-08-05T03:18:58.012Z,19.21
2022-08-05T03:21:24.490Z,18.83
2022-08-05T03:23:56.824Z,19.11
2022-08-05T03:26:31.342Z,18.79
2022-08-05T03:28:59.499Z,19.07
2022-08-05T03:31:56.019Z,18.85
2022-08-05T03:34:13.159Z,19.03
2022-08-05T03:36:40.720Z,18.96
2022-08-05T03:39:08.184Z,18.82
2022-08-05T03:41:45.457Z,18.87
2022-08-05T03:44:13.524Z,18.92
2022-08-05T03:46:46.691Z,18.72
2022-08-05T03:49:13.143Z,18.82
2022-08-05T03:52:38.088Z,18.74
2022-08-05T03:55:00.516Z,18.84
2022-08-05T03:57:46.118Z,18.71
2022-08-05T04:00:16.699Z,18.37
2022-08-05T04:02:58.753Z,18.62
2022-08-05T04:05:33.608Z,18.60
2022-08-05T04:08:30.106Z,18.57
2022-08-05T04:10:54.351Z,18.61
2022-08-05T04:13:21.744Z,18.66
2022-08-05T04:15:52.793Z,18.76
2022-08-05T04:18:31.539Z,18.34
2022-08-05T04:20:58.309Z,18.54
2022-08-05T04:23:57.362Z,18.35
2022-08-05T04:26:14.635Z,18.37
2022-08-05T04:28:50.772Z,18.37
2022-08-05T04:31:18.201Z,18.01
2022-08-05T04:34:17.483Z,18.15
2022-08-05T04:36:49.548Z,18.23
2022-08-05T04:39:17.970Z,18.22
2022-08-05T04:41:44.891Z,18.32
2022-08-05T04:44:12.363Z,17.87
2022-08-05T04:46:38.833Z,17.90
2022-08-05T04:49:07.555Z,17.80
2022-08-05T04:51:41.243Z,17.95
2022-08-05T04:54:09.183Z,17.97
2022-08-05T04:56:37.374Z,17.65
2022-08-05T04:59:21.387Z,17.95
2022-08-05T05:02:06.927Z,17.93
2022-08-05T05:04:38.513Z,17.95
2022-08-05T05:07:15.924Z,17.76
2022-08-05T05:09:43.848Z,17.78
2022-08-05T05:12:11.515Z,17.78
2022-08-05T05:14:38.233Z,17.78
2022-08-05T05:17:19.897Z,17.70
2022-08-05T05:19:50.254Z,17.69
2022-08-05T05:22:24.258Z,17.57
2022-08-05T05:24:57.713Z,17.67
2022-08-05T05:27:44.195Z,18.13
2022-08-05T05:30:15.548Z,18.02
2022-08-05T05:32:55.930Z,18.18
2022-08-05T05:35:22.836Z,18.21
2022-08-05T05:38:01.437Z,18.18
2022-08-05T05:40:30.031Z,18.13
2022-08-05T05:42:59.307Z,17.87
2022-08-05T05:45:26.377Z,17.84
2022-08-05T05:48:07.047Z,18.28
2022-08-05T05:50:42.568Z,18.22
2022-08-05T05:53:21.637Z,17.85
2022-08-05T05:55:52.141Z,18.10
2022-08-05T05:58:31.691Z,18.04
2022-08-05T06:01:12.139Z,18.19
2022-08-05T06:04:01.415Z,18.03
2022-08-05T06:06:28.033Z,18.06
2022-08-05T06:08:58.166Z,18.04
2022-08-05T06:11:24.754Z,18.09
2022-08-05T06:13:53.938Z,18.09
2022-08-05T06:16:28.240Z,18.22
2022-08-05T06:19:00.807Z,18.34
2022-08-05T06:21:37.641Z,18.86
2022-08-05T06:24:07.743Z,18.71
2022-08-05T06:26:38.072Z,18.91
2022-08-05T06:29:23.773Z,19.50
2022-08-05T06:31:51.061Z,19.17
2022-08-05T06:34:20.154Z,20.21
2022-08-05T06:36:58.007Z,20.90
2022-08-05T06:39:27.323Z,21.23
2022-08-05T06:41:56.303Z,20.86
2022-08-05T06:44:25.206Z,21.07
2022-08-05T06:46:52.660Z,20.98
2022-08-05T06:50:00.686Z,20.30
2022-08-05T06:52:07.518Z,19.66
2022-08-05T06:54:53.993Z,20.27
2022-08-05T06:57:57.143Z,20.01
2022-08-05T07:00:07.881Z,19.45
2022-08-05T07:02:43.451Z,19.57
2022-08-05T07:05:14.258Z,19.61
2022-08-05T07:07:45.358Z,19.99
2022-08-05T07:10:14.984Z,20.86
2022-08-05T07:12:43.278Z,21.21
2022-08-05T07:15:34.062Z,20.53
2022-08-05T07:18:08.924Z,22.08
2022-08-05T07:20:37.168Z,22.83
2022-08-05T07:23:06.532Z,23.10
2022-08-05T07:25:55.205Z,23.04
2022-08-05T07:28:19.544Z,21.55
2022-08-05T07:30:50.388Z,21.81
2022-08-05T07:33:19.637Z,22.27
2022-08-05T07:36:19.993Z,22.89
2022-08-05T07:38:46.975Z,23.81
2022-08-05T07:42:14.418Z,24.24
2022-08-05T07:44:06.442Z,24.38
2022-08-05T07:46:41.097Z,24.74
2022-08-05T07:49:14.792Z,24.58
2022-08-05T07:51:54.674Z,24.73
2022-08-05T07:54:26.483Z,25.13
2022-08-05T07:57:13.812Z,24.21
2022-08-05T07:59:43.427Z,24.99
2022-08-05T08:02:16.576Z,25.11
2022-08-05T08:04:48.327Z,25.60
2022-08-05T08:07:17.876Z,24.80
2022-08-05T08:09:45.766Z,25.66
2022-08-05T08:12:48.412Z,26.27
2022-08-05T08:15:02.135Z,25.64
2022-08-05T08:17:29.503Z,24.85
2022-08-05T08:20:23.031Z,24.75
2022-08-05T08:22:43.392Z,24.72
2022-08-05T08:25:15.669Z,25.26
2022-08-05T08:27:47.956Z,25.81
2022-08-05T08:30:27.602Z,25.37
2022-08-05T08:33:02.486Z,25.20
2022-08-05T08:35:35.086Z,24.63
2022-08-05T08:38:11.805Z,24.75
2022-08-05T08:40:45.691Z,24.25
2022-08-05T08:45:04.465Z,24.54
2022-08-05T08:46:06.178Z,24.92
2022-08-05T08:49:00.965Z,24.98
2022-08-05T08:52:03.455Z,24.75
2022-08-05T08:54:13.771Z,24.95
2022-08-05T08:56:47.378Z,24.93
2022-08-05T08:59:19.378Z,25.97
2022-08-05T09:01:56.973Z,26.25
2022-08-05T09:04:30.630Z,26.30
2022-08-05T09:06:57.609Z,26.63
2022-08-05T09:09:24.969Z,27.35
2022-08-05T09:11:54.166Z,27.53
2022-08-05T09:14:57.231Z,26.54
2022-08-05T09:17:40.099Z,25.59
2022-08-05T09:20:02.530Z,25.29
2022-08-05T09:23:23.742Z,24.38
2022-08-05T09:26:10.578Z,24.33
2022-08-05T09:28:48.058Z,25.38
2022-08-05T09:31:22.174Z,26.33
2022-08-05T09:34:09.755Z,26.67
2022-08-05T09:36:56.390Z,26.02
2022-08-05T09:39:41.228Z,25.66
2022-08-05T09:42:23.392Z,25.02
2022-08-05T09:44:56.201Z,23.92
2022-08-05T09:47:25.671Z,24.26
2022-08-05T09:50:01.996Z,23.91
2022-08-05T09:52:35.001Z,23.80
2022-08-05T09:55:55.560Z,23.37
2022-08-05T09:57:49.265Z,23.46
2022-08-05T10:00:22.679Z,22.98
2022-08-05T10:02:52.695Z,23.44
2022-08-05T10:05:32.934Z,23.18
2022-08-05T10:08:35.406Z,23.18
2022-08-05T10:10:54.651Z,23.17
2022-08-05T10:13:31.647Z,24.95
2022-08-05T10:16:30.657Z,24.78
2022-08-05T10:18:59.162Z,24.06
2022-08-05T10:21:27.218Z,24.66
2022-08-05T10:24:06.274Z,24.40
2022-08-05T10:26:37.271Z,23.90
2022-08-05T10:29:20.343Z,23.36
2022-08-05T10:32:53.123Z,23.35
2022-08-05T10:34:40.721Z,23.55
2022-08-05T10:37:07.924Z,23.08
2022-08-05T10:39:59.525Z,22.75
2022-08-05T10:42:33.574Z,22.19
2022-08-05T10:45:02.005Z,22.12
2022-08-05T10:48:30.341Z,22.00
2022-08-05T10:50:57.961Z,22.05
2022-08-05T10:53:42.606Z,22.32
2022-08-05T10:56:25.057Z,22.10
2022-08-05T10:58:55.510Z,21.94
2022-08-05T11:02:03.735Z,22.03
2022-08-05T11:04:27.864Z,23.00
2022-08-05T11:06:57.220Z,23.23
2022-08-05T11:09:39.327Z,23.09
2022-08-05T11:12:24.333Z,23.93
2022-08-05T11:15:19.596Z,23.46
2022-08-05T11:17:57.369Z,23.97
2022-08-05T11:20:32.831Z,23.93
2022-08-05T11:23:02.229Z,24.19
2022-08-05T11:26:04.109Z,23.44
2022-08-05T11:28:24.190Z,23.96
2022-08-05T11:30:55.991Z,23.99
2022-08-05T11:33:45.986Z,23.91
2022-08-05T11:36:33.909Z,24.43
2022-08-05T11:39:01.668Z,24.33
2022-08-05T11:41:58.072Z,23.81
2022-08-05T11:44:40.407Z,23.69
2022-08-05T11:47:13.783Z,23.94
2022-08-05T11:49:42.975Z,23.41
2022-08-05T11:52:11.798Z,23.69
2022-08-05T11:54:40.558Z,24.22
2022-08-05T11:57:25.983Z,24.04
2022-08-05T11:59:55.553Z,23.59
2022-08-05T12:02:30.616Z,23.70
2022-08-05T12:05:00.281Z,23.96
2022-08-05T12:08:08.296Z,24.01
2022-08-05T12:10:38.552Z,23.24
2022-08-05T12:13:15.865Z,23.41
2022-08-05T12:15:49.752Z,23.88
2022-08-05T12:18:20.607Z,25.01
2022-08-05T12:20:50.742Z,25.09
2022-08-05T12:23:17.202Z,25.04
2022-08-05T12:25:56.709Z,24.46
2022-08-05T12:28:35.239Z,24.29
2022-08-05T12:31:04.361Z,23.20
2022-08-05T12:33:38.525Z,23.66
2022-08-05T12:36:07.952Z,23.55
2022-08-05T12:38:37.824Z,23.84
2022-08-05T12:41:13.176Z,23.72
2022-08-05T12:43:57.261Z,23.57
2022-08-05T12:46:31.252Z,24.15
2022-08-05T12:49:13.535Z,23.87
2022-08-05T12:52:12.569Z,23.47
2022-08-05T12:54:35.446Z,23.30
2022-08-05T12:57:09.750Z,23.71
2022-08-05T13:01:57.597Z,23.74
2022-08-05T13:02:39.888Z,23.64
2022-08-05T13:05:07.683Z,24.18
2022-08-05T13:10:21.499Z,24.01
2022-08-05T13:12:51.247Z,23.72
2022-08-05T13:15:35.998Z,24.88
2022-08-05T13:18:19.724Z,24.38
2022-08-05T13:20:49.187Z,24.46
2022-08-05T13:23:18.090Z,24.79
2022-08-05T13:25:52.623Z,24.36
2022-08-05T13:28:27.061Z,25.31
2022-08-05T13:30:53.725Z,25.75
2022-08-05T13:34:22.158Z,25.92
2022-08-05T13:36:09.387Z,27.01
2022-08-05T13:38:42.324Z,26.93
2022-08-05T13:41:09.359Z,25.77
2022-08-05T13:43:45.197Z,26.24
2022-08-05T13:46:50.701Z,26.71
2022-08-05T13:49:10.468Z,25.11
2022-08-05T13:51:41.644Z,24.72
2022-08-05T13:54:15.221Z,24.08
2022-08-05T13:56:45.199Z,25.18
2022-08-05T13:59:23.780Z,24.52
2022-08-05T14:01:58.146Z,24.17
2022-08-05T14:04:33.768Z,25.44
2022-08-05T14:07:25.027Z,26.30
2022-08-05T14:09:46.766Z,26.48
2022-08-05T14:12:17.433Z,27.57
2022-08-05T14:14:45.496Z,27.63
2022-08-05T14:17:28.247Z,26.97
2022-08-05T14:20:00.983Z,26.92
2022-08-05T14:22:34.552Z,26.51
2022-08-05T14:25:01.951Z,26.03
2022-08-05T14:27:32.707Z,24.51
2022-08-05T14:29:59.205Z,24.72
2022-08-05T14:32:27.733Z,25.26
2022-08-05T14:34:54.790Z,26.55
2022-08-05T14:37:47.321Z,26.62
2022-08-05T14:40:14.263Z,26.22
2022-08-05T14:42:44.094Z,26.07
2022-08-05T14:45:10.738Z,24.89
2022-08-05T14:48:03.603Z,24.58
2022-08-05T14:50:25.177Z,25.14
2022-08-05T14:52:57.851Z,25.86
2022-08-05T14:55:28.644Z,25.26
2022-08-05T14:58:11.811Z,23.85
2022-08-05T15:00:58.250Z,24.57
2022-08-05T15:03:33.799Z,25.11
2022-08-05T15:06:07.402Z,24.79
2022-08-05T15:09:01.484Z,25.60
2022-08-05T15:11:52.942Z,25.49
2022-08-05T15:14:33.622Z,25.88
2022-08-05T15:16:59.797Z,25.81
2022-08-05T15:19:26.319Z,25.68
2022-08-05T15:21:52.742Z,25.54
2022-08-05T15:24:19.182Z,25.40
2022-08-05T15:26:46.530Z,24.50
2022-08-05T15:29:15.108Z,23.30
2022-08-05T15:31:41.741Z,24.52
2022-08-05T15:34:31.460Z,24.30
2022-08-05T15:36:54.681Z,23.86
2022-08-05T15:41:00.148Z,24.38
2022-08-05T15:42:50.388Z,23.69
2022-08-05T15:44:54.115Z,23.52
2022-08-05T15:47:22.095Z,23.66
2022-08-05T15:49:56.770Z,23.19
2022-08-05T15:52:29.482Z,23.28
2022-08-05T15:55:16.017Z,23.35
2022-08-05T15:57:43.281Z,23.90
2022-08-05T16:00:12.263Z,23.70
2022-08-05T16:02:43.423Z,24.04
2022-08-05T16:05:11.139Z,24.05
2022-08-05T16:07:37.841Z,24.55
2022-08-05T16:10:05.006Z,24.30
2022-08-05T16:12:37.943Z,23.70
2022-08-05T16:15:04.842Z,23.56
2022-08-05T16:17:31.451Z,23.31
2022-08-05T16:20:05.041Z,23.37
2022-08-05T16:22:38.327Z,22.86
2022-08-05T16:25:08.009Z,22.40
2022-08-05T16:27:59.988Z,22.26
2022-08-05T16:30:26.160Z,22.43
2022-08-05T16:32:53.225Z,21.98
2022-08-05T16:35:27.674Z,21.71
2022-08-05T16:38:02.635Z,21.63
2022-08-05T16:40:41.200Z,21.34
2022-08-05T16:43:07.708Z,21.20
2022-08-05T16:46:04.888Z,21.57
2022-08-05T16:48:25.332Z,21.10
2022-08-05T16:50:53.042Z,21.15
2022-08-05T16:53:22.481Z,20.72
2022-08-05T16:55:49.829Z,21.37
2022-08-05T16:58:19.817Z,21.07
2022-08-05T17:00:46.991Z,20.98
2022-08-05T17:03:20.109Z,20.91
2022-08-05T17:05:51.727Z,21.07
2022-08-05T17:08:36.385Z,20.85
2022-08-05T17:11:08.215Z,20.91
2022-08-05T17:13:37.657Z,20.88
2022-08-05T17:16:28.143Z,20.89
2022-08-05T17:18:54.875Z,20.30
2022-08-05T17:21:21.368Z,20.26
2022-08-05T17:24:04.370Z,20.48
2022-08-05T17:26:37.215Z,20.28
2022-08-05T17:29:09.946Z,20.29
2022-08-05T17:31:41.297Z,20.51
2022-08-05T17:34:30.274Z,20.13
2022-08-05T17:36:59.998Z,20.15
2022-08-05T17:39:34.210Z,19.93
2022-08-05T17:42:28.612Z,19.90
2022-08-05T17:44:50.875Z,19.78
2022-08-05T17:47:22.032Z,19.34
2022-08-05T17:49:51.633Z,19.83
2022-08-05T17:52:27.759Z,19.76
2022-08-05T17:54:54.910Z,19.40
2022-08-05T17:57:21.950Z,19.59
2022-08-05T18:00:03.457Z,19.77
2022-08-05T18:02:32.665Z,19.47
2022-08-05T18:04:59.342Z,19.83
2022-08-05T18:07:32.872Z,19.61
2022-08-05T18:10:10.432Z,19.25
2022-08-05T18:12:37.217Z,18.89
2022-08-05T18:15:04.738Z,19.27
2022-08-05T18:18:00.794Z,19.24
2022-08-05T18:20:18.051Z,19.13
2022-08-05T18:22:54.721Z,18.85
2022-08-05T18:25:23.861Z,19.06
2022-08-05T18:27:52.377Z,18.93
2022-08-05T18:30:19.561Z,19.03
2022-08-05T18:33:00.463Z,18.56
2022-08-05T18:36:01.254Z,18.70
2022-08-05T18:38:16.435Z,18.42
2022-08-05T18:41:56.684Z,18.52
2022-08-05T18:43:38.285Z,18.71
2022-08-05T18:46:10.162Z,18.72
2022-08-05T18:48:41.706Z,18.75
2022-08-05T18:52:04.847Z,18.79
2022-08-05T18:53:55.627Z,18.54
2022-08-05T18:56:25.156Z,18.90
2022-08-05T18:58:54.739Z,18.78
2022-08-05T19:01:21.511Z,18.86
2022-08-05T19:04:12.259Z,18.28
2022-08-05T19:06:45.427Z,18.25
2022-08-05T19:09:12.334Z,18.08
2022-08-05T19:12:00.726Z,18.76
2022-08-05T19:14:59.450Z,18.54
2022-08-05T19:17:12.080Z,17.96
2022-08-05T19:19:46.350Z,18.52
2022-08-05T19:22:17.348Z,17.70
2022-08-05T19:24:54.223Z,18.14
2022-08-05T19:27:22.877Z,18.41
2022-08-05T19:29:49.629Z,18.06
2022-08-05T19:32:16.063Z,18.44
2022-08-05T19:34:54.533Z,18.25
2022-08-05T19:37:22.113Z,18.16
2022-08-05T19:39:57.624Z,18.18
2022-08-05T19:42:36.020Z,18.16
2022-08-05T19:45:06.023Z,17.63
2022-08-05T19:47:32.974Z,17.76
2022-08-05T19:50:00.486Z,17.48
2022-08-05T19:52:31.172Z,17.26
2022-08-05T19:55:00.473Z,17.53
2022-08-05T19:57:47.463Z,17.70
2022-08-05T20:00:13.813Z,17.54
2022-08-05T20:02:40.239Z,16.83
2022-08-05T20:05:09.703Z,16.17
2022-08-05T20:07:47.795Z,16.67
2022-08-05T20:10:15.915Z,17.15
2022-08-05T20:12:47.496Z,17.02
2022-08-05T20:15:48.011Z,17.40
2022-08-05T20:18:10.792Z,17.36
2022-08-05T20:20:55.054Z,16.18
2022-08-05T20:23:23.178Z,16.28
2022-08-05T20:25:52.302Z,16.89
2022-08-05T20:28:19.896Z,17.00
2022-08-05T20:30:46.410Z,17.17
2022-08-05T20:33:15.868Z,17.04
2022-08-05T20:35:45.747Z,16.84
2022-08-05T20:38:20.051Z,17.09
2022-08-05T20:40:53.219Z,16.81
2022-08-05T20:43:57.423Z,16.39
2022-08-05T20:46:08.536Z,16.03
2022-08-05T20:48:38.733Z,15.78
2022-08-05T20:51:08.860Z,16.73
2022-08-05T20:53:36.885Z,16.80
2022-08-05T20:56:09.553Z,16.56
2022-08-05T20:58:36.862Z,17.00
2022-08-05T21:01:04.091Z,16.66
2022-08-05T21:03:34.624Z,16.86
2022-08-05T21:06:01.896Z,16.18
2022-08-05T21:08:35.822Z,15.82
2022-08-05T21:11:51.577Z,15.49
2022-08-05T21:13:59.754Z,15.80
2022-08-05T21:16:29.949Z,15.98
2022-08-05T21:19:01.434Z,14.93
2022-08-05T21:21:39.230Z,15.15
2022-08-05T21:24:06.750Z,15.14
2022-08-05T21:26:33.787Z,15.30
2022-08-05T21:29:03.639Z,14.75
2022-08-05T21:31:41.340Z,15.06
2022-08-05T21:34:08.447Z,14.52
2022-08-05T21:36:37.247Z,14.22
2022-08-05T21:39:03.844Z,13.98
2022-08-05T21:41:33.922Z,14.20
2022-08-05T21:44:04.336Z,14.71
2022-08-05T21:46:34.538Z,14.18
2022-08-05T21:49:01.863Z,14.71
2022-08-05T21:52:22.133Z,14.49
2022-08-05T21:54:14.800Z,14.55
2022-08-05T21:56:44.308Z,14.53
2022-08-05T21:59:24.056Z,15.11
2022-08-05T22:01:51.966Z,14.30
2022-08-05T22:04:21.171Z,14.39
2022-08-05T22:06:52.678Z,14.24
2022-08-05T22:09:21.133Z,14.39
2022-08-05T22:11:48.350Z,13.95
2022-08-05T22:14:35.593Z,13.85
2022-08-05T22:17:05.324Z,13.78
2022-08-05T22:20:00.643Z,13.90
2022-08-05T22:22:28.280Z,13.96
2022-08-05T22:24:59.026Z,14.17
2022-08-05T22:27:25.668Z,14.48
2022-08-05T22:30:14.096Z,14.10
2022-08-05T22:32:42.327Z,14.29
2022-08-05T22:35:12.790Z,13.88
2022-08-05T22:37:58.790Z,14.69
2022-08-05T22:40:26.513Z,14.75
2022-08-05T22:42:58.037Z,14.46
2022-08-05T22:45:24.882Z,14.03
2022-08-05T22:47:55.327Z,14.49
2022-08-05T22:50:26.948Z,14.19
2022-08-05T22:52:55.340Z,14.38
2022-08-05T22:55:23.337Z,13.82
2022-08-05T22:57:53.947Z,14.31
2022-08-05T23:00:23.107Z,14.40
2022-08-05T23:02:51.367Z,14.17
2022-08-05T23:05:18.412Z,13.81
2022-08-05T23:07:48.543Z,14.23
2022-08-05T23:10:20.230Z,14.33
2022-08-05T23:12:55.200Z,14.09
2022-08-05T23:15:29.807Z,14.04
2022-08-05T23:18:03.625Z,13.79
2022-08-05T23:20:36.997Z,13.91
2022-08-05T23:23:05.830Z,13.81
2022-08-05T23:25:51.408Z,14.11
2022-08-05T23:28:20.818Z,13.90
2022-08-05T23:30:53.546Z,14.02
2022-08-05T23:33:26.100Z,14.02
2022-08-05T23:36:10.168Z,13.84
2022-08-05T23:38:37.010Z,13.83
2022-08-05T23:41:03.434Z,13.77
2022-08-05T23:44:03.203Z,13.93
2022-08-05T23:46:21.040Z,14.06
2022-08-05T23:49:00.305Z,13.48
2022-08-05T23:51:32.594Z,13.36
2022-08-05T23:54:00.981Z,13.41
2022-08-05T23:56:27.820Z,13.59
2022-08-05T23:58:54.245Z,13.51
